Current | Forecast
Updated: 1:50 PM CEST on June 23, 2017
Observed at Hemavan Airport, Sweden
Temperature 15°C
Humidity 42%
Dew Point 2°C
Wind SSE at 15 km/h
Pressure 1004 hPa (Steady)
Conditions Overcast
Visibility 10.0 kilometers
UV 2 out of 16
Clouds Overcast (OVC) : 1859 m
Yesterday's Maximum 12°C
Yesterday's Minimum 6°C approx.
Yesterday's Heating Degree Days 17 approx.
Sunrise1:29 AM CEST
Sunset12:25 AM CEST
Moon Rise2:48 AM CEST
Moon Set10:02 PM CEST
Moon PhaseMoon Phase
Waning Crescent
Raw METARMETAR ESUT 231150Z AUTO 15008KT 9999 OVC061/// 15/02 Q1004


Monday
. High: 30° F.
Tuesday
. High: 30° F.
Wednesday
. High: 34° F.
Thursday
. High: 35° F.
Friday
. High: 35° F.
Saturday
. High: 35° F.
Sunday
. High: 30° F.
Monday
. High: 30° F.

Units: English | Metric

Find the Weather for any City, State or Zipcode, or Country:

U.S. State List | Severe Weather | Tropical Storms | Ski Conditions
United States | Canada | Central America | South America | Asia | Europe | Australia | Africa | Islands

Weather Underground

© Copyright 2017
The Weather Company, LLC